Time;durP1;ratioP1;P1;durP2;ratioP2;P2;SDS_P1;SDS_P2;PMS_P1;PMS_P2;Temp;Humidity;BMP_temperature;BMP_pressure;BME280_temperature;BME280_humidity;BME280_pressure;Samples;Min_cycle;Max_cycle;Signal;HPM_P1;HPM_P2
2022/10/08 00:01:02;;;;;;;2.40;2.20;;;23.10;68.30;;;;;;5048333;28;20201;-71
2022/10/08 00:03:33;;;;;;;3.20;1.80;;;23.20;68.00;;;;;;5051796;28;20191;-70
2022/10/08 00:06:17;;;;;;;2.17;1.97;;;23.30;66.80;;;;;;5051427;28;20188;-72
2022/10/08 00:08:53;;;;;;;3.10;2.40;;;23.40;66.90;;;;;;5051339;28;20226;-70
2022/10/08 00:11:26;;;;;;;4.03;2.10;;;23.30;68.10;;;;;;5051599;28;20217;-69
2022/10/08 00:13:55;;;;;;;3.17;2.50;;;23.40;67.80;;;;;;5051197;28;20285;-70
2022/10/08 00:16:35;;;;;;;5.33;2.50;;;23.70;66.90;;;;;;5051001;28;20194;-71
2022/10/08 00:19:14;;;;;;;1.97;1.77;;;23.80;66.30;;;;;;5051564;28;20191;-73
2022/10/08 00:21:43;;;;;;;4.17;2.10;;;23.60;64.70;;;;;;5051546;28;20188;-72
2022/10/08 00:24:16;;;;;;;2.20;1.63;;;23.50;64.70;;;;;;5054994;28;20180;-67
2022/10/08 00:26:44;;;;;;;3.73;2.00;;;23.30;64.10;;;;;;5054540;28;20617;-68
2022/10/08 00:29:14;;;;;;;1.30;1.20;;;23.30;65.50;;;;;;5054729;28;20204;-74
2022/10/08 00:31:44;;;;;;;3.27;1.50;;;23.30;63.30;;;;;;5055017;28;20184;-70
2022/10/08 00:34:16;;;;;;;4.23;1.57;;;23.50;62.80;;;;;;5055024;28;20207;-74
2022/10/08 00:36:44;;;;;;;1.70;1.33;;;23.60;61.70;;;;;;5054013;28;20180;-69
2022/10/08 00:39:15;;;;;;;1.30;1.20;;;23.50;61.60;;;;;;5053399;28;20191;-70
2022/10/08 00:41:46;;;;;;;1.50;1.40;;;23.60;60.60;;;;;;5054844;28;20222;-73
2022/10/08 00:44:52;;;;;;;3.00;1.37;;;23.80;60.60;;;;;;5053066;28;20202;-74
2022/10/08 00:47:31;;;;;;;1.30;1.20;;;23.80;59.20;;;;;;5052985;28;20648;-70
2022/10/08 00:50:46;;;;;;;1.87;1.17;;;23.80;60.00;;;;;;5053581;28;20176;-70
2022/10/08 00:53:13;;;;;;;2.10;1.40;;;23.80;58.20;;;;;;5048526;28;20381;-76
2022/10/08 00:55:41;;;;;;;1.63;1.00;;;23.80;57.90;;;;;;5052692;28;20215;-72
2022/10/08 00:58:21;;;;;;;1.63;1.17;;;23.80;59.00;;;;;;5051887;28;20179;-73
2022/10/08 01:00:50;;;;;;;2.40;1.60;;;23.90;58.60;;;;;;5054067;28;20646;-69
2022/10/08 01:03:17;;;;;;;2.43;1.60;;;23.70;58.70;;;;;;5054575;28;20180;-75
2022/10/08 01:06:16;;;;;;;2.10;1.23;;;23.80;58.10;;;;;;5053870;28;20530;-77
2022/10/08 01:09:07;;;;;;;1.10;1.00;;;23.80;58.80;;;;;;5052927;28;20273;-74
2022/10/08 01:12:02;;;;;;;2.43;1.40;;;23.90;58.50;;;;;;5044876;28;20961;-75
2022/10/08 01:14:32;;;;;;;3.27;1.50;;;24.00;57.50;;;;;;5050431;28;20213;-71
2022/10/08 01:17:06;;;;;;;1.97;1.40;;;24.20;56.60;;;;;;5053339;28;20184;-74
2022/10/08 01:20:21;;;;;;;1.20;1.10;;;24.20;56.20;;;;;;5053064;28;20194;-70
2022/10/08 01:23:12;;;;;;;1.07;0.93;;;24.20;56.30;;;;;;5050997;28;20188;-71
2022/10/08 01:25:59;;;;;;;0.97;0.87;;;24.20;55.70;;;;;;5052942;28;20176;-68
2022/10/08 01:28:36;;;;;;;2.13;1.20;;;24.10;56.20;;;;;;5055291;28;20642;-69
2022/10/08 01:31:06;;;;;;;1.37;1.10;;;23.90;56.00;;;;;;5051949;28;20195;-69
2022/10/08 01:33:57;;;;;;;1.33;1.23;;;23.80;56.00;;;;;;5053102;28;20194;-68
2022/10/08 01:36:28;;;;;;;1.23;0.80;;;23.70;57.10;;;;;;5053547;28;20215;-68
2022/10/08 01:39:00;;;;;;;1.10;0.87;;;23.60;56.00;;;;;;5053550;28;20176;-68
2022/10/08 01:41:30;;;;;;;1.10;0.90;;;23.60;56.20;;;;;;5053332;28;20180;-69
2022/10/08 01:44:33;;;;;;;1.67;0.80;;;23.50;56.50;;;;;;5050442;28;20732;-70
2022/10/08 01:47:05;;;;;;;1.50;1.00;;;23.40;57.20;;;;;;5046137;28;20722;-68
2022/10/08 01:49:44;;;;;;;4.73;1.20;;;23.30;57.80;;;;;;5050505;28;20791;-69
2022/10/08 01:52:19;;;;;;;2.13;0.90;;;23.20;59.30;;;;;;5052813;28;20180;-67
2022/10/08 01:54:49;;;;;;;3.03;1.40;;;23.20;59.60;;;;;;5049213;28;20661;-68
2022/10/08 01:57:16;;;;;;;2.20;1.20;;;23.20;58.30;;;;;;5053128;28;20541;-69
2022/10/08 01:59:58;;;;;;;1.17;1.07;;;23.10;58.80;;;;;;5045978;28;20173;-67
2022/10/08 02:02:26;;;;;;;1.10;1.00;;;23.10;60.40;;;;;;5049304;28;20188;-68
2022/10/08 02:04:55;;;;;;;1.80;1.20;;;22.90;62.50;;;;;;5043137;28;20211;-69
2022/10/08 02:07:24;;;;;;;1.23;1.10;;;22.80;63.80;;;;;;5048942;28;20194;-67
2022/10/08 02:10:00;;;;;;;1.17;1.00;;;22.60;64.30;;;;;;5051729;28;20578;-71
2022/10/08 02:12:27;;;;;;;1.73;1.40;;;22.40;65.70;;;;;;5051719;28;20202;-71
2022/10/08 02:14:57;;;;;;;1.20;1.10;;;22.20;68.00;;;;;;5052210;28;20265;-69
2022/10/08 02:17:25;;;;;;;1.30;1.10;;;22.10;67.60;;;;;;5052861;28;20184;-69
2022/10/08 02:20:07;;;;;;;1.77;1.37;;;22.00;68.60;;;;;;5052823;28;20303;-69
2022/10/08 02:23:06;;;;;;;3.97;1.37;;;21.90;69.30;;;;;;5052604;28;20179;-69
2022/10/08 02:25:54;;;;;;;1.50;1.20;;;21.80;70.70;;;;;;5031820;28;20685;-69
2022/10/08 02:28:42;;;;;;;1.90;1.40;;;21.80;72.50;;;;;;5047433;28;20224;-70
2022/10/08 02:31:34;;;;;;;1.87;1.63;;;21.80;73.60;;;;;;5052532;28;20207;-70
2022/10/08 02:34:14;;;;;;;3.87;1.80;;;21.80;74.80;;;;;;5052635;28;20176;-74
2022/10/08 02:36:46;;;;;;;3.33;1.70;;;21.80;77.30;;;;;;5052103;28;20237;-70
2022/10/08 02:39:15;;;;;;;3.53;1.80;;;21.80;76.90;;;;;;5052719;28;20167;-70
2022/10/08 02:41:52;;;;;;;1.93;1.60;;;22.00;77.70;;;;;;5052363;28;20192;-70
2022/10/08 02:44:49;;;;;;;4.20;2.10;;;22.10;79.80;;;;;;5051509;28;20192;-70
2022/10/08 02:47:20;;;;;;;4.27;2.33;;;22.10;79.90;;;;;;5043198;28;20187;-74
2022/10/08 02:49:52;;;;;;;3.17;2.03;;;21.90;79.10;;;;;;5052419;28;20175;-69
2022/10/08 02:52:22;;;;;;;6.63;2.50;;;21.90;78.00;;;;;;5052440;28;20176;-70
2022/10/08 02:54:51;;;;;;;3.83;2.33;;;21.80;79.20;;;;;;5052251;28;20204;-70
2022/10/08 02:57:41;;;;;;;3.97;1.97;;;21.80;79.20;;;;;;5052442;28;20184;-70
2022/10/08 03:00:09;;;;;;;3.80;1.80;;;21.90;79.50;;;;;;5032075;28;20208;-70
2022/10/08 03:02:48;;;;;;;9.33;3.07;;;22.00;78.60;;;;;;5032245;28;20195;-70
2022/10/08 03:05:19;;;;;;;9.13;3.70;;;21.80;79.40;;;;;;5032910;28;20180;-68
2022/10/08 03:07:49;;;;;;;9.60;4.37;;;21.40;81.10;;;;;;5052125;28;20231;-70
2022/10/08 03:10:18;;;;;;;10.10;5.27;;;21.10;82.20;;;;;;5052116;28;20233;-69
2022/10/08 03:12:46;;;;;;;11.20;5.03;;;20.90;83.20;;;;;;5051000;28;20250;-69
2022/10/08 03:15:14;;;;;;;11.70;6.30;;;20.80;83.70;;;;;;5051645;28;20270;-70
2022/10/08 03:17:46;;;;;;;12.07;7.03;;;20.70;84.00;;;;;;5051373;28;20583;-68
2022/10/08 03:20:14;;;;;;;11.30;6.23;;;20.60;84.80;;;;;;5051443;28;20222;-70
2022/10/08 03:22:41;;;;;;;7.20;5.57;;;20.30;84.80;;;;;;5050907;28;20234;-69
2022/10/08 03:25:09;;;;;;;13.83;6.10;;;20.20;84.90;;;;;;5051327;28;20184;-69
2022/10/08 03:27:36;;;;;;;9.80;5.67;;;20.10;85.30;;;;;;5052076;28;20225;-71
2022/10/08 03:30:04;;;;;;;16.30;7.37;;;20.10;86.10;;;;;;5051743;28;20187;-73
2022/10/08 03:32:32;;;;;;;14.70;6.73;;;20.00;86.20;;;;;;5041795;28;20181;-69
2022/10/08 03:34:59;;;;;;;10.73;7.20;;;20.00;86.60;;;;;;5032276;28;20200;-72
2022/10/08 03:37:26;;;;;;;12.77;7.93;;;19.90;86.40;;;;;;5051355;28;20274;-72
2022/10/08 03:39:54;;;;;;;13.57;6.70;;;19.90;87.20;;;;;;5051593;28;20186;-72
2022/10/08 03:42:21;;;;;;;11.07;5.60;;;19.80;87.10;;;;;;5050469;28;20297;-70
2022/10/08 03:44:48;;;;;;;13.30;4.60;;;19.80;87.20;;;;;;5051050;28;20211;-70
2022/10/08 03:47:16;;;;;;;9.10;4.53;;;19.70;86.70;;;;;;5051786;28;20670;-71
2022/10/08 03:49:43;;;;;;;9.40;4.60;;;19.70;86.60;;;;;;5051569;28;20211;-71
2022/10/08 03:52:10;;;;;;;9.23;4.20;;;19.70;87.10;;;;;;5051658;28;20180;-72
2022/10/08 03:54:38;;;;;;;11.33;4.30;;;19.60;87.30;;;;;;5051327;28;20674;-69
2022/10/08 03:57:05;;;;;;;10.97;4.27;;;19.60;87.70;;;;;;5056418;28;20184;-70
2022/10/08 03:59:32;;;;;;;6.97;4.07;;;19.50;87.90;;;;;;5050318;28;20283;-69
2022/10/08 04:02:00;;;;;;;10.77;4.00;;;19.50;88.30;;;;;;5044413;28;20181;-70
2022/10/08 04:04:27;;;;;;;11.40;4.20;;;19.30;88.40;;;;;;5083728;28;20642;-72
2022/10/08 04:06:54;;;;;;;8.60;4.27;;;19.30;88.90;;;;;;5052864;28;20195;-70
2022/10/08 04:09:22;;;;;;;8.57;3.90;;;19.20;89.00;;;;;;5049594;28;20578;-70
2022/10/08 04:11:49;;;;;;;12.67;4.97;;;19.20;89.20;;;;;;5047284;28;20193;-71
2022/10/08 04:14:17;;;;;;;8.37;5.53;;;19.20;89.30;;;;;;5044911;28;20206;-71
2022/10/08 04:16:44;;;;;;;10.47;6.43;;;19.20;89.60;;;;;;5054525;28;20184;-70
2022/10/08 04:19:12;;;;;;;9.70;5.63;;;19.20;89.50;;;;;;5050581;28;20176;-71
2022/10/08 04:21:40;;;;;;;6.20;4.43;;;19.00;89.50;;;;;;5048390;28;20207;-71
2022/10/08 04:24:08;;;;;;;18.17;14.40;;;19.00;89.60;;;;;;5055285;28;20274;-71
2022/10/08 04:26:36;;;;;;;10.53;6.43;;;18.80;89.10;;;;;;5055246;28;20588;-71
2022/10/08 04:29:03;;;;;;;9.93;4.80;;;18.80;89.70;;;;;;5055129;28;20188;-70
2022/10/08 04:31:30;;;;;;;7.53;4.17;;;18.80;89.70;;;;;;5053974;28;20210;-70
2022/10/08 04:33:58;;;;;;;10.73;6.30;;;18.80;89.60;;;;;;5054616;28;20192;-71
2022/10/08 04:36:25;;;;;;;11.13;8.43;;;18.70;89.60;;;;;;5054807;28;20248;-71
2022/10/08 04:38:52;;;;;;;7.57;5.60;;;18.70;89.80;;;;;;5055759;28;20673;-71
2022/10/08 04:41:25;;;;;;;11.77;4.70;;;18.60;89.90;;;;;;5055914;28;20538;-70
2022/10/08 04:43:54;;;;;;;18.90;10.70;;;18.60;90.20;;;;;;5052534;28;20243;-71
2022/10/08 04:46:22;;;;;;;14.83;8.23;;;18.60;90.40;;;;;;5055104;28;20195;-72
2022/10/08 04:48:55;;;;;;;9.73;5.87;;;18.50;90.60;;;;;;5054561;28;20176;-71
2022/10/08 04:51:25;;;;;;;9.97;5.47;;;18.50;90.60;;;;;;5054194;28;20188;-71
2022/10/08 04:53:53;;;;;;;10.07;5.80;;;18.50;90.90;;;;;;5047617;28;20271;-70
2022/10/08 04:56:28;;;;;;;10.13;5.20;;;18.50;91.10;;;;;;5054417;28;20642;-71
2022/10/08 04:58:58;;;;;;;8.20;4.33;;;18.30;91.00;;;;;;5054989;28;20194;-71
2022/10/08 05:01:26;;;;;;;8.83;4.70;;;18.30;91.10;;;;;;5053995;28;20188;-70
2022/10/08 05:03:57;;;;;;;11.00;4.90;;;18.30;91.20;;;;;;5053291;28;20180;-71
2022/10/08 05:06:28;;;;;;;10.83;5.63;;;18.30;91.50;;;;;;5058176;28;20179;-71
2022/10/08 05:08:57;;;;;;;11.40;5.40;;;18.30;91.50;;;;;;5053323;28;20674;-71
2022/10/08 05:11:26;;;;;;;9.23;5.20;;;18.30;91.70;;;;;;5053189;28;20180;-71
2022/10/08 05:13:55;;;;;;;8.97;5.07;;;18.20;91.50;;;;;;5053888;28;20658;-71
2022/10/08 05:16:23;;;;;;;10.63;5.70;;;18.20;91.60;;;;;;5053407;28;20525;-71
2022/10/08 05:18:51;;;;;;;8.10;5.90;;;18.10;91.60;;;;;;5051284;28;20187;-71
2022/10/08 05:21:25;;;;;;;9.60;5.43;;;18.10;91.80;;;;;;5054244;28;20242;-71
2022/10/08 05:24:00;;;;;;;7.13;4.97;;;18.10;91.90;;;;;;5052443;28;20191;-71
2022/10/08 05:26:35;;;;;;;10.70;5.77;;;18.10;91.90;;;;;;5045200;28;20196;-71
2022/10/08 05:29:03;;;;;;;10.00;6.33;;;18.00;91.90;;;;;;5049605;28;20658;-71
2022/10/08 05:31:31;;;;;;;12.20;6.10;;;18.00;92.10;;;;;;5053681;28;20187;-72
2022/10/08 05:34:00;;;;;;;12.70;5.73;;;18.10;92.20;;;;;;5052663;28;20178;-71
2022/10/08 05:36:29;;;;;;;8.40;5.83;;;18.10;92.30;;;;;;5048170;28;20280;-72
2022/10/08 05:39:00;;;;;;;11.50;5.87;;;18.10;92.40;;;;;;5041372;28;20180;-71
2022/10/08 05:41:30;;;;;;;11.63;6.70;;;18.00;92.50;;;;;;5053185;28;20218;-72
2022/10/08 05:44:00;;;;;;;12.40;6.63;;;18.00;92.60;;;;;;5049490;28;20265;-71
2022/10/08 05:46:29;;;;;;;12.10;6.73;;;18.00;92.50;;;;;;5046642;28;20212;-72
2022/10/08 05:48:59;;;;;;;11.67;6.53;;;18.00;92.60;;;;;;5050177;28;20183;-72
2022/10/08 05:51:26;;;;;;;12.10;6.80;;;18.00;92.80;;;;;;5050020;28;20195;-72
2022/10/08 05:53:58;;;;;;;11.87;6.83;;;17.90;92.70;;;;;;5049826;28;20171;-72
2022/10/08 05:56:27;;;;;;;15.03;7.27;;;17.90;92.80;;;;;;5045846;28;20207;-72
2022/10/08 05:58:55;;;;;;;12.67;7.33;;;17.90;92.80;;;;;;5047530;28;21967;-72
2022/10/08 06:01:26;;;;;;;13.63;7.37;;;17.80;92.80;;;;;;5048693;28;20635;-71
2022/10/08 06:03:59;;;;;;;12.57;8.13;;;17.80;92.90;;;;;;5045504;28;20295;-72
2022/10/08 06:06:27;;;;;;;11.93;8.07;;;17.80;93.00;;;;;;5043198;28;20183;-72
2022/10/08 06:08:57;;;;;;;18.60;8.80;;;17.80;93.00;;;;;;5044423;28;20187;-72
2022/10/08 06:11:28;;;;;;;14.50;7.47;;;17.80;93.00;;;;;;5047016;28;20578;-72
2022/10/08 06:13:57;;;;;;;16.57;8.60;;;17.70;93.10;;;;;;5050536;28;20184;-73
2022/10/08 06:16:25;;;;;;;10.50;8.53;;;17.80;93.10;;;;;;5050855;28;20653;-73
2022/10/08 06:18:52;;;;;;;20.47;8.50;;;17.70;93.10;;;;;;5042419;28;20194;-72
2022/10/08 06:21:22;;;;;;;17.50;9.63;;;17.70;93.20;;;;;;5043652;28;20534;-73
2022/10/08 06:23:55;;;;;;;16.23;9.47;;;17.80;93.30;;;;;;5039262;28;20190;-71
2022/10/08 06:26:25;;;;;;;13.90;8.03;;;17.80;93.30;;;;;;5037870;28;20547;-72
2022/10/08 06:28:53;;;;;;;16.93;8.37;;;17.80;93.20;;;;;;5041806;28;20198;-72
2022/10/08 06:31:21;;;;;;;16.40;9.00;;;17.80;93.10;;;;;;5050238;28;20187;-72
2022/10/08 06:33:48;;;;;;;13.37;7.83;;;17.70;93.10;;;;;;5047033;28;20184;-72
2022/10/08 06:36:18;;;;;;;11.43;8.03;;;17.70;93.20;;;;;;5043227;28;20223;-71
2022/10/08 06:38:57;;;;;;;20.60;8.77;;;17.70;93.20;;;;;;5039607;28;20196;-73
2022/10/08 06:41:27;;;;;;;17.83;8.70;;;17.70;93.20;;;;;;5041383;28;20203;-72
2022/10/08 06:43:54;;;;;;;16.77;9.40;;;17.60;93.30;;;;;;5043939;28;20227;-72
2022/10/08 06:46:22;;;;;;;12.17;9.07;;;17.60;93.20;;;;;;5051994;28;20176;-72
2022/10/08 06:48:49;;;;;;;13.77;8.73;;;17.60;93.20;;;;;;5049362;28;20654;-72
2022/10/08 06:51:18;;;;;;;17.30;8.50;;;17.50;93.10;;;;;;5052259;28;20183;-72
2022/10/08 06:53:53;;;;;;;12.20;8.23;;;17.50;93.20;;;;;;5051732;28;20193;-72
2022/10/08 06:56:20;;;;;;;20.67;9.87;;;17.50;93.10;;;;;;5052411;28;20689;-72
2022/10/08 06:58:48;;;;;;;19.97;9.70;;;17.50;93.30;;;;;;5051001;28;20646;-72
2022/10/08 07:01:17;;;;;;;24.07;10.07;;;17.50;93.20;;;;;;5051926;28;20214;-73
2022/10/08 07:03:49;;;;;;;22.87;10.87;;;17.50;93.20;;;;;;5048326;28;20270;-73
2022/10/08 07:06:17;;;;;;;24.87;10.17;;;17.50;93.30;;;;;;5041795;28;20178;-72
2022/10/08 07:08:44;;;;;;;24.60;10.57;;;17.50;93.20;;;;;;5051614;28;20168;-72
2022/10/08 07:11:18;;;;;;;29.80;11.27;;;17.50;93.20;;;;;;5051944;28;20214;-73
2022/10/08 07:13:46;;;;;;;27.57;10.33;;;17.50;93.20;;;;;;5048958;28;20179;-73
2022/10/08 07:16:22;;;;;;;24.03;10.70;;;17.40;93.10;;;;;;5050389;28;20221;-73
2022/10/08 07:18:51;;;;;;;22.80;11.23;;;17.30;93.00;;;;;;5040728;28;20243;-72
2022/10/08 07:21:20;;;;;;;24.23;10.47;;;17.30;93.00;;;;;;5050952;28;20229;-72
2022/10/08 07:23:48;;;;;;;19.87;10.87;;;17.30;92.90;;;;;;5040275;28;20177;-73
2022/10/08 07:26:21;;;;;;;30.47;9.27;;;17.20;92.90;;;;;;5045914;28;20179;-73
2022/10/08 07:29:01;;;;;;;25.10;9.33;;;17.00;92.60;;;;;;5051113;28;20175;-72
2022/10/08 07:31:31;;;;;;;28.17;10.37;;;17.00;92.60;;;;;;5053286;28;20186;-73
2022/10/08 07:34:01;;;;;;;16.67;9.33;;;17.00;92.60;;;;;;5056244;28;20175;-73
2022/10/08 07:36:29;;;;;;;23.40;9.00;;;16.90;92.60;;;;;;5056390;28;20185;-72
2022/10/08 07:38:59;;;;;;;21.70;9.63;;;16.80;92.50;;;;;;5052543;28;20178;-72
2022/10/08 07:41:26;;;;;;;18.50;10.33;;;16.90;92.60;;;;;;5048073;28;20191;-72
2022/10/08 07:43:59;;;;;;;19.73;9.57;;;16.80;92.50;;;;;;5053518;28;20285;-72
2022/10/08 07:46:28;;;;;;;23.30;12.40;;;16.80;92.50;;;;;;5056305;28;20185;-72
2022/10/08 07:49:00;;;;;;;19.10;10.87;;;16.80;92.60;;;;;;5049967;28;20185;-71
2022/10/08 07:51:30;;;;;;;22.40;11.63;;;16.80;92.50;;;;;;5053231;28;20209;-71
2022/10/08 07:54:01;;;;;;;18.90;11.17;;;16.80;92.50;;;;;;5055891;28;20249;-72
2022/10/08 07:56:29;;;;;;;22.70;11.80;;;16.80;92.40;;;;;;5056336;28;20195;-72
2022/10/08 07:58:59;;;;;;;23.40;10.80;;;16.70;92.40;;;;;;5056109;28;20262;-72
2022/10/08 08:01:28;;;;;;;18.10;11.17;;;16.70;92.30;;;;;;5049660;28;20218;-73
2022/10/08 08:04:01;;;;;;;25.87;12.53;;;16.70;92.30;;;;;;5055753;28;20182;-72
2022/10/08 08:06:29;;;;;;;18.70;11.87;;;16.60;92.30;;;;;;5054736;28;20190;-72
2022/10/08 08:08:58;;;;;;;19.07;11.80;;;16.60;92.30;;;;;;5055313;28;20258;-72
2022/10/08 08:11:28;;;;;;;17.03;10.70;;;16.50;92.30;;;;;;5055019;28;20262;-72
2022/10/08 08:13:56;;;;;;;15.77;11.80;;;16.50;92.20;;;;;;5054925;28;20180;-72
2022/10/08 08:16:25;;;;;;;17.47;13.07;;;16.50;92.30;;;;;;5055659;28;20257;-71
2022/10/08 08:18:58;;;;;;;19.63;14.40;;;16.50;92.50;;;;;;5039170;28;20713;-72
2022/10/08 08:21:27;;;;;;;19.50;13.50;;;16.50;92.50;;;;;;5055574;28;20178;-72
2022/10/08 08:23:57;;;;;;;24.47;15.10;;;16.50;92.50;;;;;;5055501;28;20180;-72
2022/10/08 08:26:27;;;;;;;18.73;15.80;;;16.50;92.50;;;;;;5055632;28;20187;-72
2022/10/08 08:28:58;;;;;;;20.03;16.03;;;16.50;92.60;;;;;;5055351;28;20173;-72
2022/10/08 08:31:31;;;;;;;24.40;16.53;;;16.40;92.70;;;;;;5055505;28;20186;-72
2022/10/08 08:34:07;;;;;;;25.03;16.93;;;16.40;92.80;;;;;;5055901;28;20230;-72
2022/10/08 08:36:37;;;;;;;20.70;16.80;;;16.50;93.00;;;;;;5055204;28;20181;-72
2022/10/08 08:39:05;;;;;;;22.27;17.20;;;16.50;93.00;;;;;;5055302;28;20176;-72
2022/10/08 08:41:52;;;;;;;24.30;18.00;;;16.50;93.10;;;;;;5055494;28;20182;-72
2022/10/08 08:44:34;;;;;;;28.87;18.43;;;16.50;93.10;;;;;;5054143;28;20195;-72
2022/10/08 08:47:19;;;;;;;23.93;20.13;;;16.50;93.20;;;;;;5055333;28;20174;-71
2022/10/08 08:50:01;;;;;;;33.40;20.97;;;16.60;93.30;;;;;;5035320;28;20211;-73
2022/10/08 08:52:33;;;;;;;32.47;22.43;;;16.60;93.30;;;;;;5042113;28;20689;-72
2022/10/08 08:55:01;;;;;;;31.43;25.47;;;16.60;93.50;;;;;;5055016;28;20211;-72
2022/10/08 08:57:39;;;;;;;35.57;26.17;;;16.70;93.60;;;;;;5054732;28;20181;-72
2022/10/08 09:00:19;;;;;;;35.77;22.53;;;16.60;93.50;;;;;;5034681;28;20190;-72
2022/10/08 09:03:03;;;;;;;36.47;26.47;;;16.60;93.50;;;;;;5041341;28;20195;-72
2022/10/08 09:05:35;;;;;;;29.07;26.17;;;16.60;93.60;;;;;;5054806;28;20633;-72
2022/10/08 09:08:07;;;;;;;28.23;25.37;;;16.50;93.30;;;;;;5034864;28;20184;-72
2022/10/08 09:10:55;;;;;;;25.70;23.07;;;16.40;93.30;;;;;;5043455;28;20271;-73
2022/10/08 09:13:39;;;;;;;20.63;18.50;;;16.40;93.30;;;;;;5053674;28;20557;-71
2022/10/08 09:16:11;;;;;;;21.17;19.17;;;16.30;93.30;;;;;;5053960;28;20276;-71
2022/10/08 09:18:45;;;;;;;28.97;25.13;;;16.30;93.20;;;;;;5054390;28;20201;-71
2022/10/08 09:21:12;;;;;;;24.10;21.77;;;16.30;93.30;;;;;;5034620;28;20176;-71
2022/10/08 09:23:40;;;;;;;34.47;31.20;;;16.30;93.30;;;;;;5039749;28;20653;-71
2022/10/08 09:26:45;;;;;;;22.87;20.43;;;16.40;93.40;;;;;;5054450;28;20270;-70
2022/10/08 09:29:32;;;;;;;29.47;22.13;;;16.30;93.40;;;;;;5051825;28;20668;-71
2022/10/08 09:32:00;;;;;;;24.43;21.77;;;16.30;93.40;;;;;;5052059;28;20209;-71
2022/10/08 09:34:27;;;;;;;28.13;22.50;;;16.40;93.50;;;;;;5051484;28;20203;-71
2022/10/08 09:37:04;;;;;;;29.03;22.17;;;16.40;93.50;;;;;;5053992;28;20193;-71
2022/10/08 09:39:35;;;;;;;26.30;22.70;;;16.30;93.50;;;;;;5054185;28;20171;-71
2022/10/08 09:42:08;;;;;;;27.90;24.27;;;16.30;93.50;;;;;;5053661;28;20636;-72
2022/10/08 09:44:48;;;;;;;27.20;24.50;;;16.40;93.50;;;;;;5053487;28;20338;-71
2022/10/08 09:47:23;;;;;;;27.03;23.90;;;16.40;93.60;;;;;;5054247;28;20181;-71
2022/10/08 09:50:07;;;;;;;31.23;24.47;;;16.40;93.60;;;;;;5053916;28;20179;-70
2022/10/08 09:52:35;;;;;;;32.87;23.30;;;16.30;93.50;;;;;;5053519;28;20174;-71
2022/10/08 09:55:35;;;;;;;31.43;21.13;;;16.30;93.50;;;;;;5053306;28;20222;-71
2022/10/08 09:58:04;;;;;;;27.47;21.20;;;16.30;93.60;;;;;;5053640;28;20222;-71
2022/10/08 10:00:37;;;;;;;31.47;22.33;;;16.20;93.60;;;;;;5053415;28;20170;-71
2022/10/08 10:03:07;;;;;;;31.27;23.93;;;16.20;93.70;;;;;;5039414;28;20276;-71
2022/10/08 10:05:36;;;;;;;35.67;25.07;;;16.20;93.70;;;;;;5038737;28;20210;-71
2022/10/08 10:08:04;;;;;;;32.20;25.30;;;16.30;93.80;;;;;;5053230;28;20210;-70
2022/10/08 10:10:35;;;;;;;33.17;25.63;;;16.20;93.70;;;;;;5053265;28;20181;-71
2022/10/08 10:13:31;;;;;;;27.10;24.40;;;16.00;93.50;;;;;;5052076;28;20182;-71
2022/10/08 10:16:16;;;;;;;26.30;23.60;;;15.70;93.50;;;;;;5053208;28;20214;-71
2022/10/08 10:18:43;;;;;;;26.30;23.60;;;15.60;93.50;;;;;;5040687;28;20565;-71
2022/10/08 10:21:17;;;;;;;23.53;21.27;;;15.40;93.20;;;;;;5053414;28;20708;-70
2022/10/08 10:24:01;;;;;;;24.87;22.23;;;15.30;93.40;;;;;;5053449;28;20171;-70
2022/10/08 10:26:35;;;;;;;26.47;23.67;;;15.20;93.30;;;;;;5053108;28;20253;-71
2022/10/08 10:29:21;;;;;;;28.00;22.87;;;15.20;93.40;;;;;;5053252;28;20219;-71
2022/10/08 10:31:49;;;;;;;26.20;23.20;;;15.20;93.50;;;;;;5053163;28;20230;-70
2022/10/08 10:34:21;;;;;;;28.57;25.90;;;15.20;93.40;;;;;;5053230;28;20164;-71
2022/10/08 10:37:01;;;;;;;28.70;25.70;;;15.20;93.50;;;;;;5052869;28;20654;-71
2022/10/08 10:39:45;;;;;;;32.33;28.30;;;15.20;93.60;;;;;;5053003;28;20183;-72
2022/10/08 10:42:39;;;;;;;32.60;29.70;;;15.20;93.60;;;;;;5052863;28;20839;-71
2022/10/08 10:45:33;;;;;;;31.87;28.60;;;15.30;93.70;;;;;;5052389;28;20203;-70
2022/10/08 10:48:01;;;;;;;30.27;27.13;;;15.20;93.50;;;;;;5052977;28;20180;-72
2022/10/08 10:51:02;;;;;;;41.07;28.60;;;15.20;93.60;;;;;;5053033;28;20180;-71
2022/10/08 10:53:39;;;;;;;31.63;29.20;;;15.30;93.70;;;;;;5052924;28;20178;-71
2022/10/08 10:56:21;;;;;;;31.60;28.57;;;15.20;93.50;;;;;;5052668;28;20257;-71
2022/10/08 10:58:51;;;;;;;31.23;28.50;;;15.20;93.60;;;;;;5052499;28;20581;-71
2022/10/08 11:01:40;;;;;;;32.37;29.57;;;15.10;93.60;;;;;;5052531;28;20168;-71
2022/10/08 11:04:19;;;;;;;31.77;29.17;;;15.20;93.70;;;;;;5052873;28;20251;-71
2022/10/08 11:06:55;;;;;;;32.53;29.53;;;15.20;93.70;;;;;;5051693;28;20604;-71
2022/10/08 11:09:32;;;;;;;29.67;27.67;;;15.20;93.60;;;;;;5052740;28;20264;-71
2022/10/08 11:12:30;;;;;;;31.53;28.43;;;15.20;93.70;;;;;;5052540;28;20577;-72
2022/10/08 11:15:33;;;;;;;33.97;30.40;;;15.30;93.70;;;;;;5051802;28;20297;-72
2022/10/08 11:18:31;;;;;;;33.53;31.07;;;15.30;93.80;;;;;;5052711;28;20168;-71
2022/10/08 11:21:19;;;;;;;33.67;30.77;;;15.30;93.80;;;;;;5032740;28;20226;-71
2022/10/08 11:24:14;;;;;;;34.70;31.63;;;15.30;93.70;;;;;;5039201;28;20170;-71
2022/10/08 11:26:55;;;;;;;33.50;30.90;;;15.30;93.70;;;;;;5051861;28;20168;-70
2022/10/08 11:30:00;;;;;;;32.77;29.80;;;15.30;93.70;;;;;;5052449;28;20190;-70
2022/10/08 11:32:28;;;;;;;34.50;31.43;;;15.40;93.80;;;;;;5050185;28;20245;-71
2022/10/08 11:35:19;;;;;;;34.87;32.03;;;15.30;93.70;;;;;;5051550;28;20223;-71
2022/10/08 11:38:06;;;;;;;34.17;30.93;;;15.40;93.70;;;;;;5032650;28;20223;-71
2022/10/08 11:40:36;;;;;;;35.47;32.50;;;15.30;93.70;;;;;;5042350;28;20190;-71
2022/10/08 11:43:28;;;;;;;34.40;31.40;;;15.30;93.70;;;;;;5053430;28;20740;-71
2022/10/08 11:46:30;;;;;;;35.60;32.47;;;15.40;93.80;;;;;;5050582;28;20665;-71
2022/10/08 11:49:13;;;;;;;36.47;33.57;;;15.40;93.70;;;;;;5052298;28;20637;-71
2022/10/08 11:51:49;;;;;;;36.77;33.60;;;15.40;93.80;;;;;;5051911;28;20457;-71
2022/10/08 11:54:29;;;;;;;35.73;32.67;;;15.40;93.80;;;;;;5052087;28;20543;-71
2022/10/08 11:57:23;;;;;;;33.73;31.40;;;15.40;93.70;;;;;;5052060;28;20620;-71
2022/10/08 11:59:57;;;;;;;36.63;32.80;;;15.40;93.70;;;;;;5051786;28;20179;-71
2022/10/08 12:02:36;;;;;;;36.73;33.37;;;15.40;93.70;;;;;;5049137;28;20182;-71
2022/10/08 12:05:23;;;;;;;34.03;31.07;;;15.40;93.80;;;;;;5036684;28;20219;-71
2022/10/08 12:07:55;;;;;;;34.73;31.60;;;15.40;93.80;;;;;;5051152;28;20198;-71
2022/10/08 12:10:35;;;;;;;34.50;31.53;;;15.40;93.70;;;;;;5051770;28;20295;-70
2022/10/08 12:13:12;;;;;;;34.47;31.23;;;15.50;93.80;;;;;;5081140;28;20187;-71
2022/10/08 12:15:39;;;;;;;33.73;30.60;;;15.50;93.80;;;;;;5051871;28;20213;-71
2022/10/08 12:18:15;;;;;;;36.07;32.87;;;15.40;93.80;;;;;;5054495;28;20539;-71
2022/10/08 12:20:43;;;;;;;35.33;31.70;;;15.40;93.80;;;;;;5055267;28;20733;-71
2022/10/08 12:23:20;;;;;;;33.97;30.63;;;15.50;93.90;;;;;;5055534;28;20179;-70
2022/10/08 12:25:48;;;;;;;37.73;34.63;;;15.50;93.90;;;;;;5055453;28;20262;-71
2022/10/08 12:28:21;;;;;;;37.67;33.83;;;15.50;93.80;;;;;;5055691;28;20645;-70
2022/10/08 12:30:52;;;;;;;35.17;31.97;;;15.50;93.90;;;;;;5055056;28;20176;-71
2022/10/08 12:33:21;;;;;;;36.10;32.67;;;15.50;93.90;;;;;;5055304;28;20529;-71
2022/10/08 12:36:09;;;;;;;33.63;31.20;;;15.50;93.90;;;;;;5054876;28;20342;-70
2022/10/08 12:38:50;;;;;;;36.03;33.27;;;15.50;93.90;;;;;;5055374;28;20175;-70
2022/10/08 12:41:21;;;;;;;35.93;33.13;;;15.50;93.90;;;;;;5035528;28;20253;-70
2022/10/08 12:44:11;;;;;;;35.20;31.80;;;15.50;93.90;;;;;;5049570;28;20250;-71
2022/10/08 12:46:42;;;;;;;38.00;34.70;;;15.50;93.90;;;;;;5054951;28;20183;-71
2022/10/08 12:49:20;;;;;;;35.70;32.80;;;15.50;93.90;;;;;;5055208;28;20205;-70
2022/10/08 12:52:05;;;;;;;32.77;30.17;;;15.30;93.70;;;;;;5055294;28;20179;-71
2022/10/08 12:54:33;;;;;;;30.87;28.60;;;15.30;93.80;;;;;;5055058;28;20782;-71
2022/10/08 12:57:09;;;;;;;28.10;26.37;;;15.20;93.50;;;;;;5053955;28;20190;-70
2022/10/08 12:59:40;;;;;;;29.17;27.30;;;15.20;93.60;;;;;;5056170;28;20697;-72
2022/10/08 13:02:32;;;;;;;31.40;29.40;;;15.20;93.60;;;;;;5058073;28;20179;-71
2022/10/08 13:04:59;;;;;;;30.43;28.77;;;15.20;93.60;;;;;;5051283;28;20190;-72
2022/10/08 13:07:35;;;;;;;28.20;26.60;;;15.10;93.40;;;;;;5054635;28;20190;-72
2022/10/08 13:10:18;;;;;;;24.90;23.67;;;15.00;93.50;;;;;;5054649;28;20542;-70
2022/10/08 13:13:05;;;;;;;26.60;25.10;;;15.00;93.50;;;;;;5054235;28;20169;-70